sensor_id;sensor_type;location;lat;lon;timestamp;pressure;altitude;pressure_sealevel;temperature;humidity
75013;BME280;63567;49.956;20.130;2022-10-16T00:01:30;97302.41;;;14.33;59.67
75013;BME280;63567;49.956;20.130;2022-10-16T00:03:57;97305.88;;;14.34;59.83
75013;BME280;63567;49.956;20.130;2022-10-16T00:06:23;97308.28;;;14.35;59.94
75013;BME280;63567;49.956;20.130;2022-10-16T00:08:49;97299.75;;;14.33;59.69
75013;BME280;63567;49.956;20.130;2022-10-16T00:11:17;97304.44;;;14.38;59.62
75013;BME280;63567;49.956;20.130;2022-10-16T00:13:45;97306.88;;;14.39;59.55
75013;BME280;63567;49.956;20.130;2022-10-16T00:16:11;97310.75;;;14.44;59.62
75013;BME280;63567;49.956;20.130;2022-10-16T00:18:37;97306.25;;;14.44;59.25
75013;BME280;63567;49.956;20.130;2022-10-16T00:21:09;97308.91;;;14.44;59.42
75013;BME280;63567;49.956;20.130;2022-10-16T00:23:35;97313.63;;;14.42;59.63
75013;BME280;63567;49.956;20.130;2022-10-16T00:26:04;97310.34;;;14.40;59.89
75013;BME280;63567;49.956;20.130;2022-10-16T00:28:29;97315.44;;;14.42;59.52
75013;BME280;63567;49.956;20.130;2022-10-16T00:30:55;97314.44;;;14.43;59.56
75013;BME280;63567;49.956;20.130;2022-10-16T00:33:21;97324.81;;;14.44;59.93
75013;BME280;63567;49.956;20.130;2022-10-16T00:35:46;97321.97;;;14.46;59.67
75013;BME280;63567;49.956;20.130;2022-10-16T00:38:12;97323.19;;;14.43;59.63
75013;BME280;63567;49.956;20.130;2022-10-16T00:40:37;97330.13;;;14.51;59.55
75013;BME280;63567;49.956;20.130;2022-10-16T00:43:12;97336.06;;;14.60;59.52
75013;BME280;63567;49.956;20.130;2022-10-16T00:45:37;97330.50;;;14.54;59.67
75013;BME280;63567;49.956;20.130;2022-10-16T00:48:02;97328.91;;;14.47;59.73
75013;BME280;63567;49.956;20.130;2022-10-16T00:50:30;97334.81;;;14.42;59.80
75013;BME280;63567;49.956;20.130;2022-10-16T00:52:57;97338.06;;;14.44;60.00
75013;BME280;63567;49.956;20.130;2022-10-16T00:55:24;97337.88;;;14.46;59.76
75013;BME280;63567;49.956;20.130;2022-10-16T00:57:51;97347.03;;;14.43;60.24
75013;BME280;63567;49.956;20.130;2022-10-16T01:00:20;97342.56;;;14.44;60.10
75013;BME280;63567;49.956;20.130;2022-10-16T01:02:53;97342.97;;;14.47;60.02
75013;BME280;63567;49.956;20.130;2022-10-16T01:05:20;97343.59;;;14.49;59.97
75013;BME280;63567;49.956;20.130;2022-10-16T01:10:57;97341.75;;;14.43;60.33
75013;BME280;63567;49.956;20.130;2022-10-16T01:13:30;97346.00;;;14.44;60.11
75013;BME280;63567;49.956;20.130;2022-10-16T01:16:14;97343.16;;;14.39;60.42
75013;BME280;63567;49.956;20.130;2022-10-16T01:18:46;97346.44;;;14.41;60.39
75013;BME280;63567;49.956;20.130;2022-10-16T01:21:21;97348.28;;;14.47;60.31
75013;BME280;63567;49.956;20.130;2022-10-16T01:26:31;97346.22;;;14.49;60.21
75013;BME280;63567;49.956;20.130;2022-10-16T01:29:09;97345.81;;;14.52;60.31
75013;BME280;63567;49.956;20.130;2022-10-16T01:31:39;97345.00;;;14.52;60.49
75013;BME280;63567;49.956;20.130;2022-10-16T01:34:16;97343.38;;;14.51;60.03
75013;BME280;63567;49.956;20.130;2022-10-16T01:36:56;97348.88;;;14.49;60.53
75013;BME280;63567;49.956;20.130;2022-10-16T01:39:26;97351.53;;;14.49;60.46
75013;BME280;63567;49.956;20.130;2022-10-16T01:44:41;97347.03;;;14.43;60.83
75013;BME280;63567;49.956;20.130;2022-10-16T01:47:09;97354.56;;;14.46;60.65
75013;BME280;63567;49.956;20.130;2022-10-16T01:49:37;97355.41;;;14.47;60.78
75013;BME280;63567;49.956;20.130;2022-10-16T01:52:08;97357.22;;;14.46;60.93
75013;BME280;63567;49.956;20.130;2022-10-16T01:54:36;97363.56;;;14.45;60.92
75013;BME280;63567;49.956;20.130;2022-10-16T01:57:05;97367.25;;;14.51;60.60
75013;BME280;63567;49.956;20.130;2022-10-16T01:59:35;97367.63;;;14.48;60.77
75013;BME280;63567;49.956;20.130;2022-10-16T02:02:06;97372.75;;;14.43;61.02
75013;BME280;63567;49.956;20.130;2022-10-16T02:04:36;97367.03;;;14.39;61.26
75013;BME280;63567;49.956;20.130;2022-10-16T02:07:03;97367.63;;;14.41;61.27
75013;BME280;63567;49.956;20.130;2022-10-16T02:09:30;97371.09;;;14.42;60.96
75013;BME280;63567;49.956;20.130;2022-10-16T02:11:56;97363.97;;;14.35;61.15
75013;BME280;63567;49.956;20.130;2022-10-16T02:14:24;97369.28;;;14.42;61.11
75013;BME280;63567;49.956;20.130;2022-10-16T02:16:50;97376.00;;;14.51;60.65
75013;BME280;63567;49.956;20.130;2022-10-16T02:19:17;97382.13;;;14.52;60.87
75013;BME280;63567;49.956;20.130;2022-10-16T02:21:50;97378.84;;;14.50;60.78
75013;BME280;63567;49.956;20.130;2022-10-16T02:27:29;97374.97;;;14.46;61.35
75013;BME280;63567;49.956;20.130;2022-10-16T02:30:21;97372.31;;;14.52;61.12
75013;BME280;63567;49.956;20.130;2022-10-16T02:32:50;97369.06;;;14.37;61.56
75013;BME280;63567;49.956;20.130;2022-10-16T02:35:18;97370.72;;;14.38;61.52
75013;BME280;63567;49.956;20.130;2022-10-16T02:37:45;97371.72;;;14.37;61.36
75013;BME280;63567;49.956;20.130;2022-10-16T02:40:13;97368.88;;;14.45;61.49
75013;BME280;63567;49.956;20.130;2022-10-16T02:42:40;97359.50;;;14.43;61.15
75013;BME280;63567;49.956;20.130;2022-10-16T02:45:08;97375.41;;;14.43;61.40
75013;BME280;63567;49.956;20.130;2022-10-16T02:47:33;97368.88;;;14.45;61.47
75013;BME280;63567;49.956;20.130;2022-10-16T02:49:59;97363.38;;;14.47;61.36
75013;BME280;63567;49.956;20.130;2022-10-16T02:52:24;97368.44;;;14.35;61.77
75013;BME280;63567;49.956;20.130;2022-10-16T02:54:50;97370.72;;;14.38;61.37
75013;BME280;63567;49.956;20.130;2022-10-16T02:57:15;97365.19;;;14.39;61.42
75013;BME280;63567;49.956;20.130;2022-10-16T02:59:41;97367.63;;;14.41;61.26
75013;BME280;63567;49.956;20.130;2022-10-16T03:02:06;97372.75;;;14.36;61.37
75013;BME280;63567;49.956;20.130;2022-10-16T03:04:32;97376.81;;;14.38;61.47
75013;BME280;63567;49.956;20.130;2022-10-16T03:06:57;97369.69;;;14.32;61.33
75013;BME280;63567;49.956;20.130;2022-10-16T03:09:22;97372.31;;;14.32;61.58
75013;BME280;63567;49.956;20.130;2022-10-16T03:11:47;97378.44;;;14.33;61.63
75013;BME280;63567;49.956;20.130;2022-10-16T03:14:13;97376.22;;;14.30;61.78
75013;BME280;63567;49.956;20.130;2022-10-16T03:16:38;97374.38;;;14.24;61.96
75013;BME280;63567;49.956;20.130;2022-10-16T03:19:03;97375.97;;;14.25;61.93
75013;BME280;63567;49.956;20.130;2022-10-16T03:21:28;97378.84;;;14.23;61.90
75013;BME280;63567;49.956;20.130;2022-10-16T03:23:54;97382.72;;;14.21;62.09
75013;BME280;63567;49.956;20.130;2022-10-16T03:26:19;97378.00;;;14.16;62.41
75013;BME280;63567;49.956;20.130;2022-10-16T03:28:45;97375.16;;;14.11;62.89
75013;BME280;63567;49.956;20.130;2022-10-16T03:31:10;97374.34;;;14.17;62.38
75013;BME280;63567;49.956;20.130;2022-10-16T03:33:35;97377.00;;;14.17;62.83
75013;BME280;63567;49.956;20.130;2022-10-16T03:36:01;97377.44;;;14.14;62.33
75013;BME280;63567;49.956;20.130;2022-10-16T03:38:26;97379.84;;;14.15;62.11
75013;BME280;63567;49.956;20.130;2022-10-16T03:40:51;97385.56;;;14.12;62.40
75013;BME280;63567;49.956;20.130;2022-10-16T03:43:17;97381.88;;;14.13;62.49
75013;BME280;63567;49.956;20.130;2022-10-16T03:45:42;97394.94;;;14.08;62.69
75013;BME280;63567;49.956;20.130;2022-10-16T03:48:07;97398.00;;;14.05;62.62
75013;BME280;63567;49.956;20.130;2022-10-16T03:50:33;97395.75;;;14.15;62.74
75013;BME280;63567;49.956;20.130;2022-10-16T03:52:58;97398.81;;;14.12;62.35
75013;BME280;63567;49.956;20.130;2022-10-16T03:55:23;97405.72;;;14.13;62.44
75013;BME280;63567;49.956;20.130;2022-10-16T03:57:49;97414.09;;;14.10;62.74
75013;BME280;63567;49.956;20.130;2022-10-16T04:00:14;97405.53;;;14.15;62.25
75013;BME280;63567;49.956;20.130;2022-10-16T04:02:40;97411.66;;;14.15;62.41
75013;BME280;63567;49.956;20.130;2022-10-16T04:05:05;97420.19;;;14.11;62.40
75013;BME280;63567;49.956;20.130;2022-10-16T04:07:30;97422.88;;;14.17;61.86
75013;BME280;63567;49.956;20.130;2022-10-16T04:09:56;97421.44;;;14.22;61.94
75013;BME280;63567;49.956;20.130;2022-10-16T04:12:23;97415.34;;;14.21;62.10
75013;BME280;63567;49.956;20.130;2022-10-16T04:14:49;97427.16;;;14.18;62.12
75013;BME280;63567;49.956;20.130;2022-10-16T04:17:14;97423.28;;;14.14;62.36
75013;BME280;63567;49.956;20.130;2022-10-16T04:19:39;97422.47;;;14.14;62.11
75013;BME280;63567;49.956;20.130;2022-10-16T04:22:05;97432.03;;;14.15;61.90
75013;BME280;63567;49.956;20.130;2022-10-16T04:24:30;97431.84;;;14.16;62.39
75013;BME280;63567;49.956;20.130;2022-10-16T04:26:55;97425.69;;;14.09;62.28
75013;BME280;63567;49.956;20.130;2022-10-16T04:29:20;97425.06;;;14.07;62.29
75013;BME280;63567;49.956;20.130;2022-10-16T04:31:46;97422.44;;;14.07;62.55
75013;BME280;63567;49.956;20.130;2022-10-16T04:34:11;97427.94;;;14.06;62.49
75013;BME280;63567;49.956;20.130;2022-10-16T04:36:37;97432.03;;;14.08;62.57
75013;BME280;63567;49.956;20.130;2022-10-16T04:39:02;97435.47;;;14.02;62.95
75013;BME280;63567;49.956;20.130;2022-10-16T04:41:27;97430.78;;;13.97;63.04
75013;BME280;63567;49.956;20.130;2022-10-16T04:43:53;97422.41;;;14.01;63.02
75013;BME280;63567;49.956;20.130;2022-10-16T04:46:18;97423.81;;;13.96;63.45
75013;BME280;63567;49.956;20.130;2022-10-16T04:48:43;97426.69;;;13.95;63.33
75013;BME280;63567;49.956;20.130;2022-10-16T04:51:08;97428.94;;;13.98;62.96
75013;BME280;63567;49.956;20.130;2022-10-16T04:53:34;97430.34;;;13.94;63.13
75013;BME280;63567;49.956;20.130;2022-10-16T04:55:59;97433.22;;;13.99;63.21
75013;BME280;63567;49.956;20.130;2022-10-16T04:58:24;97435.25;;;13.97;63.29
75013;BME280;63567;49.956;20.130;2022-10-16T05:00:50;97435.44;;;13.95;63.43
75013;BME280;63567;49.956;20.130;2022-10-16T05:03:15;97437.91;;;13.90;63.26
75013;BME280;63567;49.956;20.130;2022-10-16T05:05:44;97433.63;;;13.96;63.01
75013;BME280;63567;49.956;20.130;2022-10-16T05:08:11;97435.25;;;13.90;63.36
75013;BME280;63567;49.956;20.130;2022-10-16T05:10:36;97433.84;;;13.94;63.73
75013;BME280;63567;49.956;20.130;2022-10-16T05:13:01;97439.94;;;13.95;63.17
75013;BME280;63567;49.956;20.130;2022-10-16T05:15:27;97441.56;;;13.96;63.38
75013;BME280;63567;49.956;20.130;2022-10-16T05:17:53;97445.84;;;13.97;63.33
75013;BME280;63567;49.956;20.130;2022-10-16T05:20:19;97442.97;;;13.98;63.14
75013;BME280;63567;49.956;20.130;2022-10-16T05:22:44;97431.81;;;14.03;63.12
75013;BME280;63567;49.956;20.130;2022-10-16T05:25:09;97446.06;;;14.02;63.56
75013;BME280;63567;49.956;20.130;2022-10-16T05:28:28;97448.34;;;14.05;63.02
75013;BME280;63567;49.956;20.130;2022-10-16T05:30:55;97445.25;;;14.02;63.34
75013;BME280;63567;49.956;20.130;2022-10-16T05:33:21;97451.38;;;14.02;63.33
75013;BME280;63567;49.956;20.130;2022-10-16T05:35:46;97452.19;;;14.09;63.19
75013;BME280;63567;49.956;20.130;2022-10-16T05:38:12;97456.06;;;14.07;63.42
75013;BME280;63567;49.956;20.130;2022-10-16T05:40:37;97459.31;;;14.09;63.04
75013;BME280;63567;49.956;20.130;2022-10-16T05:43:03;97461.78;;;14.17;62.86
75013;BME280;63567;49.956;20.130;2022-10-16T05:45:28;97462.22;;;14.21;62.47
75013;BME280;63567;49.956;20.130;2022-10-16T05:47:54;97463.84;;;14.28;61.86
75013;BME280;63567;49.956;20.130;2022-10-16T05:50:19;97474.28;;;14.43;62.01
75013;BME280;63567;49.956;20.130;2022-10-16T05:52:44;97474.09;;;14.51;61.33
75013;BME280;63567;49.956;20.130;2022-10-16T05:55:09;97473.69;;;14.54;61.69
75013;BME280;63567;49.956;20.130;2022-10-16T05:57:35;97468.03;;;14.57;61.15
75013;BME280;63567;49.956;20.130;2022-10-16T06:00:00;97476.97;;;14.56;61.77
75013;BME280;63567;49.956;20.130;2022-10-16T06:02:25;97473.72;;;14.61;61.71
75013;BME280;63567;49.956;20.130;2022-10-16T06:04:53;97476.38;;;14.61;61.65
75013;BME280;63567;49.956;20.130;2022-10-16T06:07:19;97474.56;;;14.62;61.57
75013;BME280;63567;49.956;20.130;2022-10-16T06:09:48;97487.19;;;14.60;61.95
75013;BME280;63567;49.956;20.130;2022-10-16T06:12:13;97483.69;;;14.59;61.86
75013;BME280;63567;49.956;20.130;2022-10-16T06:14:38;97482.47;;;14.55;61.85
75013;BME280;63567;49.956;20.130;2022-10-16T06:17:04;97481.91;;;14.60;62.25
75013;BME280;63567;49.956;20.130;2022-10-16T06:19:29;97485.56;;;14.65;61.77
75013;BME280;63567;49.956;20.130;2022-10-16T06:21:54;97484.94;;;14.70;62.10
75013;BME280;63567;49.956;20.130;2022-10-16T06:24:20;97487.41;;;14.71;61.73
75013;BME280;63567;49.956;20.130;2022-10-16T06:26:45;97496.38;;;14.77;61.88
75013;BME280;63567;49.956;20.130;2022-10-16T06:29:10;97503.31;;;14.85;61.58
75013;BME280;63567;49.956;20.130;2022-10-16T06:31:36;97503.72;;;14.95;61.27
75013;BME280;63567;49.956;20.130;2022-10-16T06:34:01;97510.47;;;15.04;61.00
75013;BME280;63567;49.956;20.130;2022-10-16T06:36:27;97514.75;;;15.25;60.48
75013;BME280;63567;49.956;20.130;2022-10-16T06:38:53;97519.41;;;15.36;60.02
75013;BME280;63567;49.956;20.130;2022-10-16T06:41:20;97521.66;;;15.53;59.33
75013;BME280;63567;49.956;20.130;2022-10-16T06:43:46;97524.47;;;15.78;58.81
75013;BME280;63567;49.956;20.130;2022-10-16T06:46:13;97529.47;;;16.06;58.26
75013;BME280;63567;49.956;20.130;2022-10-16T06:48:38;97534.13;;;16.17;57.65
75013;BME280;63567;49.956;20.130;2022-10-16T06:51:13;97535.97;;;16.17;57.57
75013;BME280;63567;49.956;20.130;2022-10-16T06:53:42;97535.28;;;16.28;57.29
75013;BME280;63567;49.956;20.130;2022-10-16T06:56:13;97541.16;;;16.43;56.53
75013;BME280;63567;49.956;20.130;2022-10-16T06:58:39;97547.84;;;16.91;55.91
75013;BME280;63567;49.956;20.130;2022-10-16T07:01:05;97562.38;;;17.20;54.79
75013;BME280;63567;49.956;20.130;2022-10-16T07:03:31;97565.06;;;17.39;54.51
75013;BME280;63567;49.956;20.130;2022-10-16T07:05:56;97559.75;;;17.39;54.11
75013;BME280;63567;49.956;20.130;2022-10-16T07:08:22;97566.50;;;17.41;54.88
75013;BME280;63567;49.956;20.130;2022-10-16T07:10:47;97563.06;;;17.34;54.40
75013;BME280;63567;49.956;20.130;2022-10-16T07:13:13;97566.00;;;17.26;55.25
75013;BME280;63567;49.956;20.130;2022-10-16T07:15:40;97564.28;;;17.13;54.93
75013;BME280;63567;49.956;20.130;2022-10-16T07:18:05;97554.16;;;16.97;55.26
75013;BME280;63567;49.956;20.130;2022-10-16T07:20:31;97559.66;;;17.27;55.38
75013;BME280;63567;49.956;20.130;2022-10-16T07:22:56;97564.19;;;17.70;54.04
75013;BME280;63567;49.956;20.130;2022-10-16T07:25:21;97563.91;;;18.64;51.90
75013;BME280;63567;49.956;20.130;2022-10-16T07:27:47;97556.63;;;19.13;49.74
75013;BME280;63567;49.956;20.130;2022-10-16T07:30:12;97562.72;;;19.67;48.48
75013;BME280;63567;49.956;20.130;2022-10-16T07:32:37;97568.41;;;19.71;48.26
75013;BME280;63567;49.956;20.130;2022-10-16T07:35:03;97565.75;;;19.71;48.50
75013;BME280;63567;49.956;20.130;2022-10-16T07:37:28;97564.06;;;20.17;47.30
75013;BME280;63567;49.956;20.130;2022-10-16T07:39:53;97573.97;;;20.05;46.22
75013;BME280;63567;49.956;20.130;2022-10-16T07:42:19;97560.50;;;19.88;47.85
75013;BME280;63567;49.956;20.130;2022-10-16T07:44:45;97571.78;;;19.55;47.68
75013;BME280;63567;49.956;20.130;2022-10-16T07:47:10;97568.75;;;19.51;48.95
75013;BME280;63567;49.956;20.130;2022-10-16T07:49:35;97570.13;;;19.42;48.62
75013;BME280;63567;49.956;20.130;2022-10-16T07:52:01;97568.84;;;19.33;49.26
75013;BME280;63567;49.956;20.130;2022-10-16T07:54:26;97573.03;;;19.28;49.62
75013;BME280;63567;49.956;20.130;2022-10-16T07:56:51;97576.63;;;19.22;49.13
75013;BME280;63567;49.956;20.130;2022-10-16T07:59:16;97573.69;;;19.12;49.07
75013;BME280;63567;49.956;20.130;2022-10-16T08:01:42;97573.84;;;19.17;49.75
75013;BME280;63567;49.956;20.130;2022-10-16T08:04:08;97572.19;;;19.16;49.32
75013;BME280;63567;49.956;20.130;2022-10-16T08:06:36;97584.00;;;18.97;50.15
75013;BME280;63567;49.956;20.130;2022-10-16T08:09:02;97593.81;;;18.84;50.61
75013;BME280;63567;49.956;20.130;2022-10-16T08:11:27;97585.69;;;18.79;50.00
75013;BME280;63567;49.956;20.130;2022-10-16T08:13:52;97580.41;;;18.91;50.31
75013;BME280;63567;49.956;20.130;2022-10-16T08:16:17;97588.47;;;18.84;50.69
75013;BME280;63567;49.956;20.130;2022-10-16T08:18:43;97595.75;;;18.77;50.07
75013;BME280;63567;49.956;20.130;2022-10-16T08:21:16;97595.75;;;18.77;50.58
75013;BME280;63567;49.956;20.130;2022-10-16T08:23:41;97592.56;;;18.87;50.50
75013;BME280;63567;49.956;20.130;2022-10-16T08:26:08;97597.91;;;18.87;49.49
75013;BME280;63567;49.956;20.130;2022-10-16T08:28:33;97597.56;;;18.95;49.97
75013;BME280;63567;49.956;20.130;2022-10-16T08:31:25;97598.03;;;18.92;49.47
75013;BME280;63567;49.956;20.130;2022-10-16T08:33:52;97592.22;;;18.95;50.14
75013;BME280;63567;49.956;20.130;2022-10-16T08:36:17;97594.09;;;18.95;50.06
75013;BME280;63567;49.956;20.130;2022-10-16T08:38:43;97600.13;;;18.90;50.13
75013;BME280;63567;49.956;20.130;2022-10-16T08:41:40;97596.66;;;19.01;49.84
75013;BME280;63567;49.956;20.130;2022-10-16T08:49:25;97605.81;;;18.94;50.48
75013;BME280;63567;49.956;20.130;2022-10-16T08:51:51;97604.94;;;19.12;48.89
75013;BME280;63567;49.956;20.130;2022-10-16T08:54:36;97604.34;;;19.09;49.15
75013;BME280;63567;49.956;20.130;2022-10-16T08:57:22;97606.13;;;19.16;48.78
75013;BME280;63567;49.956;20.130;2022-10-16T08:59:48;97608.00;;;19.27;49.31
75013;BME280;63567;49.956;20.130;2022-10-16T09:04:56;97614.91;;;19.82;47.00
75013;BME280;63567;49.956;20.130;2022-10-16T09:07:41;97614.75;;;20.24;46.94
75013;BME280;63567;49.956;20.130;2022-10-16T09:10:30;97609.59;;;20.86;45.06
75013;BME280;63567;49.956;20.130;2022-10-16T09:13:18;97623.84;;;21.04;44.00
75013;BME280;63567;49.956;20.130;2022-10-16T09:15:55;97614.84;;;20.81;44.11
75013;BME280;63567;49.956;20.130;2022-10-16T09:18:40;97622.34;;;20.96;44.39
75013;BME280;63567;49.956;20.130;2022-10-16T09:21:16;97621.19;;;20.63;44.75
75013;BME280;63567;49.956;20.130;2022-10-16T09:23:43;97628.34;;;20.34;44.89
75013;BME280;63567;49.956;20.130;2022-10-16T09:26:12;97631.28;;;20.09;47.01
75013;BME280;63567;49.956;20.130;2022-10-16T09:28:38;97628.13;;;20.12;47.02
75013;BME280;63567;49.956;20.130;2022-10-16T09:31:04;97634.78;;;19.86;47.33
75013;BME280;63567;49.956;20.130;2022-10-16T09:33:34;97640.19;;;19.56;48.07
75013;BME280;63567;49.956;20.130;2022-10-16T09:36:03;97635.16;;;19.24;48.64
75013;BME280;63567;49.956;20.130;2022-10-16T09:38:31;97645.00;;;19.12;49.16
75013;BME280;63567;49.956;20.130;2022-10-16T09:40:59;97654.31;;;18.91;49.16
75013;BME280;63567;49.956;20.130;2022-10-16T09:43:40;97652.13;;;18.87;49.80
75013;BME280;63567;49.956;20.130;2022-10-16T09:48:56;97647.47;;;18.83;49.85
75013;BME280;63567;49.956;20.130;2022-10-16T09:51:27;97659.13;;;19.00;50.45
75013;BME280;63567;49.956;20.130;2022-10-16T09:54:00;97655.00;;;19.16;49.52
75013;BME280;63567;49.956;20.130;2022-10-16T09:56:34;97652.50;;;19.33;49.77
75013;BME280;63567;49.956;20.130;2022-10-16T09:59:08;97648.31;;;19.37;49.86
75013;BME280;63567;49.956;20.130;2022-10-16T10:01:39;97650.28;;;19.30;49.15
75013;BME280;63567;49.956;20.130;2022-10-16T10:04:06;97646.47;;;19.38;48.62
75013;BME280;63567;49.956;20.130;2022-10-16T10:06:43;97654.63;;;19.55;47.93
75013;BME280;63567;49.956;20.130;2022-10-16T10:09:25;97655.50;;;19.79;48.55
75013;BME280;63567;49.956;20.130;2022-10-16T10:11:55;97663.19;;;19.87;48.42
75013;BME280;63567;49.956;20.130;2022-10-16T10:14:24;97655.16;;;19.87;47.25
75013;BME280;63567;49.956;20.130;2022-10-16T10:16:51;97650.97;;;19.91;47.27
75013;BME280;63567;49.956;20.130;2022-10-16T10:19:23;97656.44;;;19.96;47.40
75013;BME280;63567;49.956;20.130;2022-10-16T10:21:50;97655.13;;;19.75;46.54
75013;BME280;63567;49.956;20.130;2022-10-16T10:24:17;97654.44;;;19.80;47.01
75013;BME280;63567;49.956;20.130;2022-10-16T10:26:57;97654.22;;;19.81;47.10
75013;BME280;63567;49.956;20.130;2022-10-16T10:32:49;97653.16;;;20.06;46.12
75013;BME280;63567;49.956;20.130;2022-10-16T10:38:16;97653.75;;;21.01;43.91
75013;BME280;63567;49.956;20.130;2022-10-16T10:40:51;97652.25;;;21.67;42.24
75013;BME280;63567;49.956;20.130;2022-10-16T10:43:39;97654.84;;;22.35;40.26
75013;BME280;63567;49.956;20.130;2022-10-16T10:47:01;97650.19;;;23.19;39.74
75013;BME280;63567;49.956;20.130;2022-10-16T10:54:38;97649.53;;;22.84;40.18
75013;BME280;63567;49.956;20.130;2022-10-16T10:57:21;97643.13;;;22.63;41.14
75013;BME280;63567;49.956;20.130;2022-10-16T11:02:54;97644.44;;;21.49;42.20
75013;BME280;63567;49.956;20.130;2022-10-16T11:08:14;97638.50;;;21.01;43.07
75013;BME280;63567;49.956;20.130;2022-10-16T11:18:50;97645.00;;;20.77;43.72
75013;BME280;63567;49.956;20.130;2022-10-16T11:21:19;97646.16;;;20.81;43.77
75013;BME280;63567;49.956;20.130;2022-10-16T11:23:55;97642.25;;;20.71;43.76
75013;BME280;63567;49.956;20.130;2022-10-16T11:26:28;97635.72;;;20.56;43.65
75013;BME280;63567;49.956;20.130;2022-10-16T11:28:56;97632.25;;;20.55;43.52
75013;BME280;63567;49.956;20.130;2022-10-16T11:31:43;97638.56;;;20.61;44.26
75013;BME280;63567;49.956;20.130;2022-10-16T11:37:52;97641.19;;;20.72;44.69
75013;BME280;63567;49.956;20.130;2022-10-16T11:40:30;97641.44;;;20.71;45.37
75013;BME280;63567;49.956;20.130;2022-10-16T11:43:13;97641.59;;;20.93;44.82
75013;BME280;63567;49.956;20.130;2022-10-16T11:45:44;97648.63;;;20.70;43.93
75013;BME280;63567;49.956;20.130;2022-10-16T11:50:51;97641.09;;;20.96;42.98
75013;BME280;63567;49.956;20.130;2022-10-16T11:53:34;97648.81;;;21.09;42.50
75013;BME280;63567;49.956;20.130;2022-10-16T11:56:04;97647.53;;;20.95;42.89
75013;BME280;63567;49.956;20.130;2022-10-16T11:58:41;97643.63;;;21.03;42.71
75013;BME280;63567;49.956;20.130;2022-10-16T12:03:46;97645.72;;;21.01;42.65
75013;BME280;63567;49.956;20.130;2022-10-16T12:08:49;97651.03;;;21.12;42.36
75013;BME280;63567;49.956;20.130;2022-10-16T12:17:01;97648.69;;;20.87;42.89
75013;BME280;63567;49.956;20.130;2022-10-16T12:19:29;97654.28;;;20.86;43.40
75013;BME280;63567;49.956;20.130;2022-10-16T12:21:56;97651.16;;;20.89;43.67
75013;BME280;63567;49.956;20.130;2022-10-16T12:24:33;97656.97;;;21.15;43.58
75013;BME280;63567;49.956;20.130;2022-10-16T12:26:59;97654.38;;;21.65;42.34
75013;BME280;63567;49.956;20.130;2022-10-16T12:29:39;97662.53;;;22.09;40.27
75013;BME280;63567;49.956;20.130;2022-10-16T12:32:29;97660.59;;;22.44;40.13
75013;BME280;63567;49.956;20.130;2022-10-16T12:34:55;97658.84;;;22.15;40.53
75013;BME280;63567;49.956;20.130;2022-10-16T12:37:23;97667.97;;;22.14;40.57
75013;BME280;63567;49.956;20.130;2022-10-16T12:39:51;97657.78;;;22.77;39.74
75013;BME280;63567;49.956;20.130;2022-10-16T12:42:36;97645.44;;;23.90;38.30
75013;BME280;63567;49.956;20.130;2022-10-16T12:45:22;97648.88;;;24.86;35.46
75013;BME280;63567;49.956;20.130;2022-10-16T12:47:51;97645.97;;;26.21;33.79
75013;BME280;63567;49.956;20.130;2022-10-16T12:50:37;97651.06;;;27.42;30.70
75013;BME280;63567;49.956;20.130;2022-10-16T12:53:17;97658.88;;;27.04;31.40
75013;BME280;63567;49.956;20.130;2022-10-16T13:03:53;97664.88;;;28.10;29.78
75013;BME280;63567;49.956;20.130;2022-10-16T13:06:40;97662.78;;;27.67;29.11
75013;BME280;63567;49.956;20.130;2022-10-16T13:09:40;97662.72;;;27.43;29.53
75013;BME280;63567;49.956;20.130;2022-10-16T13:12:15;97669.44;;;27.80;29.57
75013;BME280;63567;49.956;20.130;2022-10-16T13:15:06;97671.63;;;27.78;29.12
75013;BME280;63567;49.956;20.130;2022-10-16T13:17:48;97670.53;;;26.19;31.74
75013;BME280;63567;49.956;20.130;2022-10-16T13:20:45;97662.63;;;24.90;33.42
75013;BME280;63567;49.956;20.130;2022-10-16T13:27:05;97668.16;;;23.40;36.30
75013;BME280;63567;49.956;20.130;2022-10-16T13:29:22;97684.03;;;23.14;37.85
75013;BME280;63567;49.956;20.130;2022-10-16T13:31:47;97678.44;;;23.21;38.39
75013;BME280;63567;49.956;20.130;2022-10-16T13:34:17;97679.22;;;23.16;37.90
75013;BME280;63567;49.956;20.130;2022-10-16T13:36:48;97686.22;;;22.73;40.02
75013;BME280;63567;49.956;20.130;2022-10-16T13:39:29;97677.00;;;22.64;40.07
75013;BME280;63567;49.956;20.130;2022-10-16T13:42:02;97687.22;;;22.45;40.63
75013;BME280;63567;49.956;20.130;2022-10-16T13:44:30;97690.72;;;22.12;41.35
75013;BME280;63567;49.956;20.130;2022-10-16T13:47:00;97693.69;;;22.10;41.79
75013;BME280;63567;49.956;20.130;2022-10-16T13:49:26;97697.44;;;21.92;42.15
75013;BME280;63567;49.956;20.130;2022-10-16T13:51:56;97705.06;;;22.01;42.50
75013;BME280;63567;49.956;20.130;2022-10-16T13:54:23;97703.78;;;21.86;42.73
75013;BME280;63567;49.956;20.130;2022-10-16T13:56:48;97704.97;;;21.62;43.28
75013;BME280;63567;49.956;20.130;2022-10-16T13:59:32;97707.91;;;21.43;44.15
75013;BME280;63567;49.956;20.130;2022-10-16T14:01:58;97702.56;;;21.31;44.73
75013;BME280;63567;49.956;20.130;2022-10-16T14:04:29;97701.75;;;21.31;44.38
75013;BME280;63567;49.956;20.130;2022-10-16T14:06:56;97708.25;;;21.06;45.11
75013;BME280;63567;49.956;20.130;2022-10-16T14:09:31;97710.59;;;21.03;45.88
75013;BME280;63567;49.956;20.130;2022-10-16T14:12:00;97709.63;;;20.80;46.90
75013;BME280;63567;49.956;20.130;2022-10-16T14:14:39;97715.63;;;20.59;47.87
75013;BME280;63567;49.956;20.130;2022-10-16T14:17:05;97716.75;;;20.51;47.97
75013;BME280;63567;49.956;20.130;2022-10-16T14:19:31;97720.25;;;20.51;48.87